Broad Channel, New York
Current Conditions -  °F | °C
As of 11:51 PM on Sunday 21 Dec 2014 (Local Time) from KJFK Reporting Station
Overcast Overcast  
Wind Chill: 30°   Ceiling: 1100
Heat Index: 37°   Visibility: 10mi
Dew Point: 30°   Wind: 9mph
Humidity: 76%   Direction: 360°N
Pressure: 30.33"   Gusts: NA
Location:  40.6184°N, 73.8256°W
Report Text: KJFK 220451Z 36008KT 10SM OVC011 03/M01 A3033 RMK AO2 SLP271 T00281011 400330006 $
Loading
Personal Weather Stations






























Interactive Weather Map New forecast layout! Learn more

10-Day Weather Forecast

Advertisements
Track Severe Weather on mobile